sensor_id;sensor_type;location;lat;lon;timestamp;pressure;altitude;pressure_sealevel;temperature;humidity
29215;BME280;16252;49.816;7.964;2023-04-16T00:01:23;100116.47;;;12.60;54.23
29215;BME280;16252;49.816;7.964;2023-04-16T00:03:48;100118.56;;;12.56;54.05
29215;BME280;16252;49.816;7.964;2023-04-16T00:06:13;100107.47;;;12.50;54.36
29215;BME280;16252;49.816;7.964;2023-04-16T00:08:38;100107.72;;;12.47;54.45
29215;BME280;16252;49.816;7.964;2023-04-16T00:11:05;100111.88;;;12.51;54.48
29215;BME280;16252;49.816;7.964;2023-04-16T00:13:30;100109.00;;;12.31;54.50
29215;BME280;16252;49.816;7.964;2023-04-16T00:15:55;100114.94;;;12.35;54.60
29215;BME280;16252;49.816;7.964;2023-04-16T00:18:21;100148.09;;;12.56;54.55
29215;BME280;16252;49.816;7.964;2023-04-16T00:20:47;100134.66;;;12.45;54.66
29215;BME280;16252;49.816;7.964;2023-04-16T00:23:12;100122.25;;;12.33;54.65
29215;BME280;16252;49.816;7.964;2023-04-16T00:25:37;100118.72;;;12.32;54.54
29215;BME280;16252;49.816;7.964;2023-04-16T00:28:03;100151.13;;;12.52;54.66
29215;BME280;16252;49.816;7.964;2023-04-16T00:30:29;100123.34;;;12.30;54.90
29215;BME280;16252;49.816;7.964;2023-04-16T00:32:54;100130.56;;;12.30;54.57
29215;BME280;16252;49.816;7.964;2023-04-16T00:35:20;100160.19;;;12.51;54.56
29215;BME280;16252;49.816;7.964;2023-04-16T00:37:45;100151.88;;;12.43;54.74
29215;BME280;16252;49.816;7.964;2023-04-16T00:40:10;100167.59;;;12.47;54.60
29215;BME280;16252;49.816;7.964;2023-04-16T00:42:36;100162.25;;;12.47;54.62
29215;BME280;16252;49.816;7.964;2023-04-16T00:45:03;100146.50;;;12.43;55.02
29215;BME280;16252;49.816;7.964;2023-04-16T00:47:28;100151.03;;;12.42;55.03
29215;BME280;16252;49.816;7.964;2023-04-16T00:49:54;100149.09;;;12.44;54.88
29215;BME280;16252;49.816;7.964;2023-04-16T00:52:20;100153.22;;;12.48;54.87
29215;BME280;16252;49.816;7.964;2023-04-16T00:54:45;100177.59;;;12.56;55.02
29215;BME280;16252;49.816;7.964;2023-04-16T00:57:12;100152.34;;;12.48;54.95
29215;BME280;16252;49.816;7.964;2023-04-16T00:59:38;100137.13;;;12.37;54.92
29215;BME280;16252;49.816;7.964;2023-04-16T01:02:03;100142.38;;;12.39;55.08
29215;BME280;16252;49.816;7.964;2023-04-16T01:04:29;100136.88;;;12.40;55.00
29215;BME280;16252;49.816;7.964;2023-04-16T01:06:54;100120.94;;;12.27;55.27
29215;BME280;16252;49.816;7.964;2023-04-16T01:09:20;100161.13;;;12.50;54.92
29215;BME280;16252;49.816;7.964;2023-04-16T01:11:45;100151.50;;;12.47;55.04
29215;BME280;16252;49.816;7.964;2023-04-16T01:14:11;100168.81;;;12.54;54.93
29215;BME280;16252;49.816;7.964;2023-04-16T01:16:36;100147.03;;;12.36;55.02
29215;BME280;16252;49.816;7.964;2023-04-16T01:19:01;100148.97;;;12.34;55.08
29215;BME280;16252;49.816;7.964;2023-04-16T01:21:27;100177.25;;;12.50;55.02
29215;BME280;16252;49.816;7.964;2023-04-16T01:23:52;100156.44;;;12.31;55.23
29215;BME280;16252;49.816;7.964;2023-04-16T01:26:17;100146.06;;;12.26;55.22
29215;BME280;16252;49.816;7.964;2023-04-16T01:28:42;100167.28;;;12.29;55.13
29215;BME280;16252;49.816;7.964;2023-04-16T01:31:08;100171.91;;;12.39;55.20
29215;BME280;16252;49.816;7.964;2023-04-16T01:33:33;100151.69;;;12.23;55.17
29215;BME280;16252;49.816;7.964;2023-04-16T01:35:58;100181.16;;;12.34;55.15
29215;BME280;16252;49.816;7.964;2023-04-16T01:38:23;100114.63;;;11.95;55.31
29215;BME280;16252;49.816;7.964;2023-04-16T01:40:49;100168.38;;;12.27;55.32
29215;BME280;16252;49.816;7.964;2023-04-16T01:43:14;100165.94;;;12.24;55.31
29215;BME280;16252;49.816;7.964;2023-04-16T01:45:39;100160.59;;;12.24;54.99
29215;BME280;16252;49.816;7.964;2023-04-16T01:48:05;100156.69;;;12.17;55.40
29215;BME280;16252;49.816;7.964;2023-04-16T01:50:30;100184.97;;;12.32;55.32
29215;BME280;16252;49.816;7.964;2023-04-16T01:52:56;100123.41;;;11.97;55.33
29215;BME280;16252;49.816;7.964;2023-04-16T01:55:21;100174.00;;;12.24;55.52
29215;BME280;16252;49.816;7.964;2023-04-16T01:57:46;100155.34;;;12.11;55.56
29215;BME280;16252;49.816;7.964;2023-04-16T02:00:12;100156.44;;;12.08;55.54
29215;BME280;16252;49.816;7.964;2023-04-16T02:02:39;100195.56;;;12.33;55.77
29215;BME280;16252;49.816;7.964;2023-04-16T02:05:04;100161.81;;;12.08;55.70
29215;BME280;16252;49.816;7.964;2023-04-16T02:07:30;100181.31;;;12.22;55.65
29215;BME280;16252;49.816;7.964;2023-04-16T02:09:56;100161.69;;;12.10;55.81
29215;BME280;16252;49.816;7.964;2023-04-16T02:12:22;100183.63;;;12.15;55.75
29215;BME280;16252;49.816;7.964;2023-04-16T02:14:47;100164.50;;;12.08;55.84
29215;BME280;16252;49.816;7.964;2023-04-16T02:17:13;100185.72;;;12.11;55.85
29215;BME280;16252;49.816;7.964;2023-04-16T02:19:39;100179.75;;;12.08;56.07
29215;BME280;16252;49.816;7.964;2023-04-16T02:22:04;100198.59;;;12.18;56.06
29215;BME280;16252;49.816;7.964;2023-04-16T02:24:30;100159.25;;;11.96;56.06
29215;BME280;16252;49.816;7.964;2023-04-16T02:26:55;100181.56;;;12.07;56.08
29215;BME280;16252;49.816;7.964;2023-04-16T02:29:21;100170.22;;;12.04;56.25
29215;BME280;16252;49.816;7.964;2023-04-16T02:31:47;100190.97;;;12.13;56.27
29215;BME280;16252;49.816;7.964;2023-04-16T02:34:17;100171.22;;;12.03;56.19
29215;BME280;16252;49.816;7.964;2023-04-16T02:36:43;100138.91;;;11.93;56.19
29215;BME280;16252;49.816;7.964;2023-04-16T02:39:08;100172.66;;;12.07;56.15
29215;BME280;16252;49.816;7.964;2023-04-16T02:41:33;100170.47;;;12.01;55.85
29215;BME280;16252;49.816;7.964;2023-04-16T02:43:58;100149.63;;;11.93;56.07
29215;BME280;16252;49.816;7.964;2023-04-16T02:46:24;100164.72;;;11.94;56.34
29215;BME280;16252;49.816;7.964;2023-04-16T02:48:49;100150.22;;;11.85;56.32
29215;BME280;16252;49.816;7.964;2023-04-16T02:51:14;100158.88;;;11.89;56.28
29215;BME280;16252;49.816;7.964;2023-04-16T02:53:40;100153.84;;;11.84;56.28
29215;BME280;16252;49.816;7.964;2023-04-16T02:56:09;100164.34;;;11.87;56.22
29215;BME280;16252;49.816;7.964;2023-04-16T02:58:34;100159.34;;;11.83;56.58
29215;BME280;16252;49.816;7.964;2023-04-16T03:01:00;100156.88;;;11.80;56.53
29215;BME280;16252;49.816;7.964;2023-04-16T03:03:25;100163.50;;;11.87;56.44
29215;BME280;16252;49.816;7.964;2023-04-16T03:05:50;100165.22;;;11.88;56.27
29215;BME280;16252;49.816;7.964;2023-04-16T03:08:16;100151.41;;;11.81;56.64
29215;BME280;16252;49.816;7.964;2023-04-16T03:10:41;100175.22;;;11.97;56.50
29215;BME280;16252;49.816;7.964;2023-04-16T03:13:06;100190.84;;;12.03;56.41
29215;BME280;16252;49.816;7.964;2023-04-16T03:15:32;100179.25;;;11.91;56.54
29215;BME280;16252;49.816;7.964;2023-04-16T03:17:57;100153.38;;;11.79;56.55
29215;BME280;16252;49.816;7.964;2023-04-16T03:20:23;100121.31;;;11.55;56.27
29215;BME280;16252;49.816;7.964;2023-04-16T03:22:49;100178.28;;;11.92;56.33
29215;BME280;16252;49.816;7.964;2023-04-16T03:25:16;100142.91;;;11.65;56.50
29215;BME280;16252;49.816;7.964;2023-04-16T03:27:42;100184.72;;;11.90;56.50
29215;BME280;16252;49.816;7.964;2023-04-16T03:30:09;100177.03;;;11.85;56.40
29215;BME280;16252;49.816;7.964;2023-04-16T03:32:35;100169.34;;;11.81;56.37
29215;BME280;16252;49.816;7.964;2023-04-16T03:35:02;100191.31;;;11.97;56.21
29215;BME280;16252;49.816;7.964;2023-04-16T03:37:27;100188.88;;;11.94;56.34
29215;BME280;16252;49.816;7.964;2023-04-16T03:39:52;100186.94;;;11.96;56.30
29215;BME280;16252;49.816;7.964;2023-04-16T03:42:17;100189.09;;;12.02;56.05
29215;BME280;16252;49.816;7.964;2023-04-16T03:44:43;100173.63;;;11.95;56.37
29215;BME280;16252;49.816;7.964;2023-04-16T03:47:08;100196.06;;;12.05;56.06
29215;BME280;16252;49.816;7.964;2023-04-16T03:49:33;100183.75;;;12.02;56.05
29215;BME280;16252;49.816;7.964;2023-04-16T03:51:59;100212.91;;;12.18;56.05
29215;BME280;16252;49.816;7.964;2023-04-16T03:54:24;100177.44;;;12.03;56.04
29215;BME280;16252;49.816;7.964;2023-04-16T03:56:49;100175.00;;;12.00;55.84
29215;BME280;16252;49.816;7.964;2023-04-16T03:59:16;100193.75;;;12.11;55.67
29215;BME280;16252;49.816;7.964;2023-04-16T04:01:41;100184.00;;;11.99;55.73
29215;BME280;16252;49.816;7.964;2023-04-16T04:04:06;100189.47;;;12.09;55.86
29215;BME280;16252;49.816;7.964;2023-04-16T04:06:33;100149.59;;;11.82;55.89
29215;BME280;16252;49.816;7.964;2023-04-16T04:08:58;100216.19;;;12.22;55.76
29215;BME280;16252;49.816;7.964;2023-04-16T04:11:24;100172.41;;;11.99;55.60
29215;BME280;16252;49.816;7.964;2023-04-16T04:13:49;100216.19;;;12.22;55.92
29215;BME280;16252;49.816;7.964;2023-04-16T04:16:14;100197.91;;;12.16;55.77
29215;BME280;16252;49.816;7.964;2023-04-16T04:18:40;100170.22;;;12.04;55.82
29215;BME280;16252;49.816;7.964;2023-04-16T04:21:08;100192.28;;;12.19;55.96
29215;BME280;16252;49.816;7.964;2023-04-16T04:23:34;100196.81;;;12.18;55.71
29215;BME280;16252;49.816;7.964;2023-04-16T04:26:00;100224.22;;;12.33;55.82
29215;BME280;16252;49.816;7.964;2023-04-16T04:28:28;100213.13;;;12.26;55.58
29215;BME280;16252;49.816;7.964;2023-04-16T04:30:53;100218.59;;;12.25;55.65
29215;BME280;16252;49.816;7.964;2023-04-16T04:33:19;100202.53;;;12.13;55.63
29215;BME280;16252;49.816;7.964;2023-04-16T04:35:44;100194.13;;;12.07;55.72
29215;BME280;16252;49.816;7.964;2023-04-16T04:38:10;100208.38;;;12.07;55.82
29215;BME280;16252;49.816;7.964;2023-04-16T04:40:35;100193.75;;;12.00;55.83
29215;BME280;16252;49.816;7.964;2023-04-16T04:43:00;100201.56;;;12.03;55.62
29215;BME280;16252;49.816;7.964;2023-04-16T04:45:25;100214.22;;;12.12;55.79
29215;BME280;16252;49.816;7.964;2023-04-16T04:47:54;100224.34;;;12.20;55.96
29215;BME280;16252;49.816;7.964;2023-04-16T04:50:20;100197.16;;;12.02;56.19
29215;BME280;16252;49.816;7.964;2023-04-16T04:52:46;100165.22;;;11.88;55.98
29215;BME280;16252;49.816;7.964;2023-04-16T04:55:11;100233.50;;;12.29;56.00
29215;BME280;16252;49.816;7.964;2023-04-16T04:57:38;100226.41;;;12.28;55.87
29215;BME280;16252;49.816;7.964;2023-04-16T05:00:03;100216.28;;;12.20;55.91
29215;BME280;16252;49.816;7.964;2023-04-16T05:02:29;100243.13;;;12.31;55.77
29215;BME280;16252;49.816;7.964;2023-04-16T05:04:54;100214.13;;;12.14;55.91
29215;BME280;16252;49.816;7.964;2023-04-16T05:07:21;100224.81;;;12.25;56.19
29215;BME280;16252;49.816;7.964;2023-04-16T05:09:46;100224.13;;;12.23;55.74
29215;BME280;16252;49.816;7.964;2023-04-16T05:12:11;100226.81;;;12.23;55.74
29215;BME280;16252;49.816;7.964;2023-04-16T05:14:36;100218.13;;;12.20;55.88
29215;BME280;16252;49.816;7.964;2023-04-16T05:17:02;100202.53;;;12.13;55.59
29215;BME280;16252;49.816;7.964;2023-04-16T05:19:27;100211.31;;;12.16;55.82
29215;BME280;16252;49.816;7.964;2023-04-16T05:21:53;100272.50;;;12.55;55.78
29215;BME280;16252;49.816;7.964;2023-04-16T05:24:18;100237.13;;;12.28;55.74
29215;BME280;16252;49.816;7.964;2023-04-16T05:26:44;100250.47;;;12.41;56.00
29215;BME280;16252;49.816;7.964;2023-04-16T05:29:09;100257.16;;;12.46;56.18
29215;BME280;16252;49.816;7.964;2023-04-16T05:31:34;100277.03;;;12.55;55.92
29215;BME280;16252;49.816;7.964;2023-04-16T05:33:59;100220.94;;;12.29;55.86
29215;BME280;16252;49.816;7.964;2023-04-16T05:36:25;100257.53;;;12.42;55.90
29215;BME280;16252;49.816;7.964;2023-04-16T05:38:50;100250.81;;;12.36;55.87
29215;BME280;16252;49.816;7.964;2023-04-16T05:41:15;100261.31;;;12.39;56.03
29215;BME280;16252;49.816;7.964;2023-04-16T05:43:40;100255.56;;;12.32;55.98
29215;BME280;16252;49.816;7.964;2023-04-16T05:46:06;100280.56;;;12.44;55.98
29215;BME280;16252;49.816;7.964;2023-04-16T05:48:31;100277.16;;;12.42;55.89
29215;BME280;16252;49.816;7.964;2023-04-16T05:50:56;100262.50;;;12.35;55.85
29215;BME280;16252;49.816;7.964;2023-04-16T05:53:22;100272.28;;;12.36;56.18
29215;BME280;16252;49.816;7.964;2023-04-16T05:55:47;100292.28;;;12.43;56.13
29215;BME280;16252;49.816;7.964;2023-04-16T05:58:13;100281.03;;;12.38;56.15
29215;BME280;16252;49.816;7.964;2023-04-16T06:00:38;100294.09;;;12.43;55.89
29215;BME280;16252;49.816;7.964;2023-04-16T06:03:04;100304.00;;;12.42;56.17
29215;BME280;16252;49.816;7.964;2023-04-16T06:05:29;100302.88;;;12.45;56.09
29215;BME280;16252;49.816;7.964;2023-04-16T06:07:55;100284.22;;;12.32;56.28
29215;BME280;16252;49.816;7.964;2023-04-16T06:10:20;100253.59;;;12.12;56.25
29215;BME280;16252;49.816;7.964;2023-04-16T06:12:45;100310.84;;;12.46;56.41
29215;BME280;16252;49.816;7.964;2023-04-16T06:15:11;100266.16;;;12.11;56.15
29215;BME280;16252;49.816;7.964;2023-04-16T06:17:36;100244.56;;;12.02;56.27
29215;BME280;16252;49.816;7.964;2023-04-16T06:20:01;100274.81;;;12.15;56.15
29215;BME280;16252;49.816;7.964;2023-04-16T06:22:27;100305.69;;;12.32;56.28
29215;BME280;16252;49.816;7.964;2023-04-16T06:24:52;100290.81;;;12.17;56.27
29215;BME280;16252;49.816;7.964;2023-04-16T06:27:18;100293.00;;;12.23;56.33
29215;BME280;16252;49.816;7.964;2023-04-16T06:29:43;100281.91;;;12.16;56.32
29215;BME280;16252;49.816;7.964;2023-04-16T06:32:08;100327.53;;;12.39;56.46
29215;BME280;16252;49.816;7.964;2023-04-16T06:34:34;100300.94;;;12.24;56.71
29215;BME280;16252;49.816;7.964;2023-04-16T06:36:59;100299.34;;;12.22;56.36
29215;BME280;16252;49.816;7.964;2023-04-16T06:39:25;100329.34;;;12.38;56.33
29215;BME280;16252;49.816;7.964;2023-04-16T06:41:50;100319.34;;;12.29;56.60
29215;BME280;16252;49.816;7.964;2023-04-16T06:44:15;100300.53;;;12.18;56.50
29215;BME280;16252;49.816;7.964;2023-04-16T06:46:41;100275.66;;;12.04;56.55
29215;BME280;16252;49.816;7.964;2023-04-16T06:49:06;100291.78;;;12.16;56.57
29215;BME280;16252;49.816;7.964;2023-04-16T06:51:32;100260.41;;;11.93;56.52
29215;BME280;16252;49.816;7.964;2023-04-16T06:53:57;100314.59;;;12.32;56.67
29215;BME280;16252;49.816;7.964;2023-04-16T06:56:22;100299.34;;;12.22;56.50
29215;BME280;16252;49.816;7.964;2023-04-16T06:58:49;100334.25;;;12.44;56.84
29215;BME280;16252;49.816;7.964;2023-04-16T07:01:14;100320.81;;;12.33;56.82
29215;BME280;16252;49.816;7.964;2023-04-16T07:03:39;100321.94;;;12.42;56.64
29215;BME280;16252;49.816;7.964;2023-04-16T07:06:05;100319.50;;;12.39;56.88
29215;BME280;16252;49.816;7.964;2023-04-16T07:08:30;100266.41;;;12.08;56.91
29215;BME280;16252;49.816;7.964;2023-04-16T07:10:55;100304.59;;;12.34;56.87
29215;BME280;16252;49.816;7.964;2023-04-16T07:13:20;100322.66;;;12.44;56.96
29215;BME280;16252;49.816;7.964;2023-04-16T07:15:46;100321.56;;;12.46;56.92
29215;BME280;16252;49.816;7.964;2023-04-16T07:18:11;100305.19;;;12.38;56.84
29215;BME280;16252;49.816;7.964;2023-04-16T07:20:37;100306.91;;;12.39;56.94
29215;BME280;16252;49.816;7.964;2023-04-16T07:23:02;100327.66;;;12.60;56.94
29215;BME280;16252;49.816;7.964;2023-04-16T07:25:27;100311.19;;;12.53;56.72
29215;BME280;16252;49.816;7.964;2023-04-16T07:27:52;100310.22;;;12.54;56.72
29215;BME280;16252;49.816;7.964;2023-04-16T07:30:18;100299.09;;;12.47;56.80
29215;BME280;16252;49.816;7.964;2023-04-16T07:32:43;100329.00;;;12.65;56.97
29215;BME280;16252;49.816;7.964;2023-04-16T07:35:09;100337.69;;;12.69;56.79
29215;BME280;16252;49.816;7.964;2023-04-16T07:37:34;100324.63;;;12.64;56.91
29215;BME280;16252;49.816;7.964;2023-04-16T07:39:59;100344.50;;;12.73;56.99
29215;BME280;16252;49.816;7.964;2023-04-16T07:42:25;100342.44;;;12.76;56.96
29215;BME280;16252;49.816;7.964;2023-04-16T07:44:51;100328.63;;;12.70;56.98
29215;BME280;16252;49.816;7.964;2023-04-16T07:47:16;100331.06;;;12.73;56.99
29215;BME280;16252;49.816;7.964;2023-04-16T07:49:42;100352.19;;;12.89;57.18
29215;BME280;16252;49.816;7.964;2023-04-16T07:52:08;100331.91;;;12.73;57.28
29215;BME280;16252;49.816;7.964;2023-04-16T07:54:33;100309.25;;;12.66;57.56
29215;BME280;16252;49.816;7.964;2023-04-16T07:56:58;100351.22;;;12.90;57.45
29215;BME280;16252;49.816;7.964;2023-04-16T07:59:24;100331.69;;;12.76;57.69
29215;BME280;16252;49.816;7.964;2023-04-16T08:01:52;100326.19;;;12.78;57.94
29215;BME280;16252;49.816;7.964;2023-04-16T08:04:17;100347.66;;;12.78;57.38
29215;BME280;16252;49.816;7.964;2023-04-16T08:06:48;100355.72;;;12.78;57.54
29215;BME280;16252;49.816;7.964;2023-04-16T08:09:13;100356.97;;;12.74;57.68
29215;BME280;16252;49.816;7.964;2023-04-16T08:11:39;100365.00;;;12.74;57.55
29215;BME280;16252;49.816;7.964;2023-04-16T08:14:04;100376.09;;;12.80;57.84
29215;BME280;16252;49.816;7.964;2023-04-16T08:16:29;100370.25;;;12.75;57.90
29215;BME280;16252;49.816;7.964;2023-04-16T08:18:55;100350.97;;;12.59;57.88
29215;BME280;16252;49.816;7.964;2023-04-16T08:21:20;100374.75;;;12.75;57.82
29215;BME280;16252;49.816;7.964;2023-04-16T08:23:45;100371.09;;;12.76;57.57
29215;BME280;16252;49.816;7.964;2023-04-16T08:26:11;100393.78;;;12.83;58.25
29215;BME280;16252;49.816;7.964;2023-04-16T08:28:36;100392.84;;;12.84;58.11
29215;BME280;16252;49.816;7.964;2023-04-16T08:31:01;100382.72;;;12.76;58.17
29215;BME280;16252;49.816;7.964;2023-04-16T08:33:27;100362.19;;;12.64;58.14
29215;BME280;16252;49.816;7.964;2023-04-16T08:35:52;100373.44;;;12.69;58.13
29215;BME280;16252;49.816;7.964;2023-04-16T08:38:17;100362.56;;;12.60;58.04
29215;BME280;16252;49.816;7.964;2023-04-16T08:40:44;100379.66;;;12.70;58.52
29215;BME280;16252;49.816;7.964;2023-04-16T08:43:11;100405.38;;;12.84;58.86
29215;BME280;16252;49.816;7.964;2023-04-16T08:45:39;100364.75;;;12.66;59.08
29215;BME280;16252;49.816;7.964;2023-04-16T08:48:05;100370.00;;;12.67;58.67
29215;BME280;16252;49.816;7.964;2023-04-16T08:50:34;100396.84;;;12.78;58.86
29215;BME280;16252;49.816;7.964;2023-04-16T08:53:04;100374.38;;;12.68;59.36
29215;BME280;16252;49.816;7.964;2023-04-16T08:55:44;100391.97;;;12.84;58.88
29215;BME280;16252;49.816;7.964;2023-04-16T08:58:17;100398.22;;;12.84;58.63
29215;BME280;16252;49.816;7.964;2023-04-16T09:00:43;100408.97;;;12.84;58.82
29215;BME280;16252;49.816;7.964;2023-04-16T09:03:10;100392.94;;;12.83;59.06
29215;BME280;16252;49.816;7.964;2023-04-16T09:05:37;100373.53;;;12.68;59.14
29215;BME280;16252;49.816;7.964;2023-04-16T09:08:04;100410.03;;;12.93;59.36
29215;BME280;16252;49.816;7.964;2023-04-16T09:10:30;100411.88;;;12.92;59.13
29215;BME280;16252;49.816;7.964;2023-04-16T09:12:56;100425.06;;;12.95;59.42
29215;BME280;16252;49.816;7.964;2023-04-16T09:15:21;100379.03;;;12.66;59.23
29215;BME280;16252;49.816;7.964;2023-04-16T09:17:47;100421.63;;;12.93;59.03
29215;BME280;16252;49.816;7.964;2023-04-16T09:20:13;100431.06;;;12.99;59.42
29215;BME280;16252;49.816;7.964;2023-04-16T09:22:39;100405.63;;;12.80;59.36
29215;BME280;16252;49.816;7.964;2023-04-16T09:25:06;100432.00;;;12.98;58.95
29215;BME280;16252;49.816;7.964;2023-04-16T09:27:31;100405.03;;;12.77;58.93
29215;BME280;16252;49.816;7.964;2023-04-16T09:29:57;100442.00;;;12.96;59.04
29215;BME280;16252;49.816;7.964;2023-04-16T09:32:26;100444.59;;;12.97;59.15
29215;BME280;16252;49.816;7.964;2023-04-16T09:34:56;100434.81;;;12.85;59.32
29215;BME280;16252;49.816;7.964;2023-04-16T09:37:24;100448.75;;;12.90;59.08
29215;BME280;16252;49.816;7.964;2023-04-16T09:40:00;100423.94;;;12.75;59.77
29215;BME280;16252;49.816;7.964;2023-04-16T09:42:28;100436.41;;;12.76;59.50
29215;BME280;16252;49.816;7.964;2023-04-16T09:44:54;100456.06;;;12.88;59.63
29215;BME280;16252;49.816;7.964;2023-04-16T09:47:21;100465.84;;;12.89;59.42
29215;BME280;16252;49.816;7.964;2023-04-16T09:49:48;100457.41;;;12.83;59.66
29215;BME280;16252;49.816;7.964;2023-04-16T09:52:18;100453.72;;;12.84;59.38
29215;BME280;16252;49.816;7.964;2023-04-16T09:54:48;100447.88;;;12.78;59.25
29215;BME280;16252;49.816;7.964;2023-04-16T09:57:17;100465.69;;;12.91;59.47
29215;BME280;16252;49.816;7.964;2023-04-16T09:59:44;100468.75;;;12.86;59.25
29215;BME280;16252;49.816;7.964;2023-04-16T10:02:11;100431.16;;;12.64;59.59
29215;BME280;16252;49.816;7.964;2023-04-16T10:04:53;100460.47;;;12.89;59.56
29215;BME280;16252;49.816;7.964;2023-04-16T10:07:19;100430.16;;;12.65;59.34
29215;BME280;16252;49.816;7.964;2023-04-16T10:09:48;100471.22;;;12.89;59.65
29215;BME280;16252;49.816;7.964;2023-04-16T10:12:15;100444.22;;;12.79;59.22
29215;BME280;16252;49.816;7.964;2023-04-16T10:14:41;100454.97;;;12.91;59.66
29215;BME280;16252;49.816;7.964;2023-04-16T10:17:08;100476.81;;;12.97;59.68
29215;BME280;16252;49.816;7.964;2023-04-16T10:19:34;100476.72;;;12.99;59.36
29215;BME280;16252;49.816;7.964;2023-04-16T10:22:00;100440.06;;;12.75;59.61
29215;BME280;16252;49.816;7.964;2023-04-16T10:24:27;100401.34;;;12.55;59.53
29215;BME280;16252;49.816;7.964;2023-04-16T10:26:54;100462.53;;;12.86;59.69
29215;BME280;16252;49.816;7.964;2023-04-16T10:29:20;100468.88;;;12.96;59.35
29215;BME280;16252;49.816;7.964;2023-04-16T10:31:46;100445.56;;;12.85;59.47
29215;BME280;16252;49.816;7.964;2023-04-16T10:34:12;100457.66;;;12.91;59.37
29215;BME280;16252;49.816;7.964;2023-04-16T10:36:38;100418.44;;;12.66;59.49
29215;BME280;16252;49.816;7.964;2023-04-16T10:39:10;100448.03;;;12.99;59.53
29215;BME280;16252;49.816;7.964;2023-04-16T10:41:37;100456.94;;;13.00;59.43
29215;BME280;16252;49.816;7.964;2023-04-16T10:44:07;100398.44;;;12.70;59.62
29215;BME280;16252;49.816;7.964;2023-04-16T10:49:14;100451.44;;;13.13;59.32
29215;BME280;16252;49.816;7.964;2023-04-16T10:51:40;100455.22;;;13.10;59.33
29215;BME280;16252;49.816;7.964;2023-04-16T10:56:38;100474.16;;;13.20;59.69
29215;BME280;16252;49.816;7.964;2023-04-16T10:59:05;100479.69;;;13.30;59.60
29215;BME280;16252;49.816;7.964;2023-04-16T11:01:35;100471.38;;;13.33;59.39
29215;BME280;16252;49.816;7.964;2023-04-16T11:12:17;100483.19;;;13.53;59.52
29215;BME280;16252;49.816;7.964;2023-04-16T11:14:46;100484.63;;;13.57;59.66
29215;BME280;16252;49.816;7.964;2023-04-16T11:17:12;100456.22;;;13.43;59.15
29215;BME280;16252;49.816;7.964;2023-04-16T11:19:37;100453.00;;;13.49;59.30
29215;BME280;16252;49.816;7.964;2023-04-16T11:22:03;100482.81;;;13.69;59.34
29215;BME280;16252;49.816;7.964;2023-04-16T11:24:32;100445.19;;;13.57;59.13
29215;BME280;16252;49.816;7.964;2023-04-16T11:26:58;100464.97;;;13.68;59.52
29215;BME280;16252;49.816;7.964;2023-04-16T11:29:23;100435.66;;;13.53;59.56
29215;BME280;16252;49.816;7.964;2023-04-16T11:31:52;100478.22;;;13.92;59.21
29215;BME280;16252;49.816;7.964;2023-04-16T11:34:18;100467.72;;;13.88;59.33
29215;BME280;16252;49.816;7.964;2023-04-16T11:36:46;100468.66;;;13.99;59.18
29215;BME280;16252;49.816;7.964;2023-04-16T11:39:11;100474.50;;;14.04;58.95
29215;BME280;16252;49.816;7.964;2023-04-16T11:41:47;100485.22;;;14.15;59.28
29215;BME280;16252;49.816;7.964;2023-04-16T11:44:30;100448.84;;;14.00;58.71
29215;BME280;16252;49.816;7.964;2023-04-16T11:46:56;100472.88;;;14.13;58.63
29215;BME280;16252;49.816;7.964;2023-04-16T11:49:28;100394.19;;;13.67;58.62
29215;BME280;16252;49.816;7.964;2023-04-16T11:51:54;100483.88;;;14.21;58.53
29215;BME280;16252;49.816;7.964;2023-04-16T11:54:20;100480.06;;;14.23;58.53
29215;BME280;16252;49.816;7.964;2023-04-16T11:56:47;100473.34;;;14.18;58.60
29215;BME280;16252;49.816;7.964;2023-04-16T11:59:14;100421.00;;;13.90;58.44
29215;BME280;16252;49.816;7.964;2023-04-16T12:01:44;100427.47;;;13.98;58.67
29215;BME280;16252;49.816;7.964;2023-04-16T12:04:10;100415.69;;;13.99;58.61
29215;BME280;16252;49.816;7.964;2023-04-16T12:06:35;100485.75;;;14.41;58.28
29215;BME280;16252;49.816;7.964;2023-04-16T12:09:21;100468.59;;;14.42;58.18
29215;BME280;16252;49.816;7.964;2023-04-16T12:11:46;100447.25;;;14.29;58.12
29215;BME280;16252;49.816;7.964;2023-04-16T12:14:12;100456.63;;;14.35;58.33
29215;BME280;16252;49.816;7.964;2023-04-16T12:16:37;100476.75;;;14.52;58.30
29215;BME280;16252;49.816;7.964;2023-04-16T12:19:03;100487.47;;;14.63;58.07
29215;BME280;16252;49.816;7.964;2023-04-16T12:21:55;100474.53;;;14.78;57.70
29215;BME280;16252;49.816;7.964;2023-04-16T12:24:24;100441.00;;;14.50;57.37
29215;BME280;16252;49.816;7.964;2023-04-16T12:26:52;100488.88;;;14.79;57.66
29215;BME280;16252;49.816;7.964;2023-04-16T12:29:21;100459.28;;;14.67;57.73
29215;BME280;16252;49.816;7.964;2023-04-16T12:31:48;100481.94;;;14.86;57.38
29215;BME280;16252;49.816;7.964;2023-04-16T12:34:14;100458.75;;;14.73;57.09
29215;BME280;16252;49.816;7.964;2023-04-16T12:36:40;100451.78;;;14.71;57.32
29215;BME280;16252;49.816;7.964;2023-04-16T12:39:06;100480.31;;;14.94;57.25
29215;BME280;16252;49.816;7.964;2023-04-16T12:41:35;100459.53;;;14.85;57.49
29215;BME280;16252;49.816;7.964;2023-04-16T12:44:08;100483.34;;;15.11;57.09
29215;BME280;16252;49.816;7.964;2023-04-16T12:46:38;100453.47;;;14.93;57.34
29215;BME280;16252;49.816;7.964;2023-04-16T12:49:04;100454.66;;;15.00;57.07
29215;BME280;16252;49.816;7.964;2023-04-16T12:51:30;100481.84;;;15.18;56.85
29215;BME280;16252;49.816;7.964;2023-04-16T12:53:55;100455.56;;;15.10;56.26
29215;BME280;16252;49.816;7.964;2023-04-16T12:56:21;100447.03;;;15.05;56.18
29215;BME280;16252;49.816;7.964;2023-04-16T12:58:46;100439.09;;;15.13;56.15